This is the latest recevied weather packets stored in our database for station/object KC3ELT-10. If no packets are shown the sender has not sent any weather packets the latest 10 day(s).
| Time | Temp. | Humidity | Pressure | Rain* | Wind** | Luminosity | Snow |
|---|---|---|---|---|---|---|---|
| 1777502578 | 10.56° C | 82% | 1003.8 hPa | 0 mm | 0.89 m/s, 134° | - | - |
| 1777502279 | 10.56° C | 81% | 1003.8 hPa | 0 mm | 0.89 m/s, 143° | - | - |
| 1777501979 | 11.11° C | 80% | 1003.8 hPa | 0 mm | 0.89 m/s, 162° | - | - |
| 1777501679 | 11.67° C | 79% | 1003.9 hPa | 0 mm | 0.45 m/s, 161° | - | - |
| 1777501379 | 12.22° C | 77% | 1003.9 hPa | 0 mm | 0.45 m/s, 153° | - | - |
| 1777501078 | 12.78° C | 76% | 1003.9 hPa | 0 mm | 1.79 m/s, 141° | - | - |
| 1777500778 | 13.33° C | 73% | 1003.9 hPa | 0 mm | 0.89 m/s, 215° | - | - |
| 1777500478 | 13.33° C | 71% | 1003.9 hPa | 0 mm | 0 m/s | - | - |
| 1777500179 | 13.33° C | 71% | 1003.9 hPa | 0 mm | 0.45 m/s, 188° | - | - |
| 1777499878 | 13.33° C | 71% | 1003.9 hPa | 0 mm | 0.45 m/s, 186° | - | - |
| 1777499579 | 13.33° C | 70% | 1003.9 hPa | 0 mm | 0 m/s | - | - |
| 1777499278 | 13.33° C | 69% | 1003.9 hPa | 0 mm | 1.34 m/s, 137° | - | - |
| 1777498979 | 13.89° C | 69% | 1004.1 hPa | 0 mm | 0.89 m/s, 167° | - | - |
| 1777498679 | 13.89° C | 69% | 1004.1 hPa | 0 mm | 0 m/s | - | - |
| 1777498379 | 13.89° C | 67% | 1004.1 hPa | 0 mm | 0 m/s | - | - |
| 1777498079 | 13.89° C | 68% | 1004.2 hPa | 0 mm | 0 m/s | - | - |
| 1777497779 | 13.89° C | 68% | 1004.2 hPa | 0 mm | 0.89 m/s, 137° | - | - |
| 1777497479 | 13.89° C | 68% | 1004.2 hPa | 0 mm | 0.45 m/s, 136° | - | - |
| 1777497179 | 13.89° C | 69% | 1004.2 hPa | 0 mm | 0 m/s | - | - |
| 1777496878 | 13.89° C | 69% | 1004.2 hPa | 0 mm | 0.89 m/s, 140° | - | - |
| 1777496578 | 13.89° C | 68% | 1004.2 hPa | 0 mm | 0.45 m/s, 136° | - | - |
| 1777496278 | 13.89° C | 68% | 1004.2 hPa | 0 mm | 0.45 m/s, 175° | - | - |
| 1777495979 | 13.89° C | 69% | 1004.2 hPa | 0 mm | 0 m/s | - | - |
| 1777495679 | 13.89° C | 68% | 1004.2 hPa | 0 mm | 0.45 m/s, 148° | - | - |
| 1777495379 | 13.89° C | 67% | 1004.6 hPa | 0 mm | 0 m/s | - | - |
* Rain latest hour (hover to see other rain measurements)
** Current wind speed in m/s (hover to see current wind gust speed)